Time;durP1;ratioP1;P1;durP2;ratioP2;P2;SDS_P1;SDS_P2;PMS_P1;PMS_P2;Temp;Humidity;BMP_temperature;BMP_pressure;BME280_temperature;BME280_humidity;BME280_pressure;Samples;Min_cycle;Max_cycle;Signal;HPM_P1;HPM_P2
2024/01/18 00:00:50;;;;;;;22.27;14.97;;;;;21.30;98114.00;;;;2050003;28;20238;-57
2024/01/18 00:01:52;;;;;;;19.67;14.77;;;;;21.20;98107.00;;;;2050019;28;20236;-58
2024/01/18 00:02:53;;;;;;;22.80;14.63;;;;;21.30;98112.00;;;;2037760;28;20220;-58
2024/01/18 00:03:53;;;;;;;19.70;14.90;;;;;21.30;98107.00;;;;2050287;28;20212;-57
2024/01/18 00:04:54;;;;;;;19.87;14.73;;;;;21.30;98107.00;;;;2045935;28;20208;-57
2024/01/18 00:05:54;;;;;;;19.40;15.03;;;;;21.30;98115.00;;;;2045900;28;20208;-58
2024/01/18 00:06:54;;;;;;;17.93;14.30;;;;;21.20;98103.00;;;;2047010;28;20295;-58
2024/01/18 00:07:54;;;;;;;19.30;13.70;;;;;21.20;98104.00;;;;2045555;28;20218;-58
2024/01/18 00:08:55;;;;;;;19.20;14.17;;;;;21.20;98102.00;;;;2057531;28;20282;-58
2024/01/18 00:09:55;;;;;;;17.20;13.93;;;;;21.30;98106.00;;;;2056704;28;20236;-58
2024/01/18 00:10:56;;;;;;;19.23;15.07;;;;;21.20;98106.00;;;;2051682;28;20228;-58
2024/01/18 00:11:56;;;;;;;19.30;14.30;;;;;21.20;98111.00;;;;2047029;28;20204;-58
2024/01/18 00:12:57;;;;;;;15.87;13.13;;;;;21.20;98115.00;;;;2040692;28;20219;-58
2024/01/18 00:13:57;;;;;;;20.70;14.17;;;;;21.20;98118.00;;;;2051428;28;20211;-57
2024/01/18 00:14:57;;;;;;;19.63;13.40;;;;;21.20;98117.00;;;;2043417;28;20738;-58
2024/01/18 00:15:57;;;;;;;16.87;13.10;;;;;21.20;98120.00;;;;2046350;28;20437;-57
2024/01/18 00:16:58;;;;;;;17.03;12.70;;;;;21.20;98126.00;;;;2043107;28;20595;-57
2024/01/18 00:17:58;;;;;;;15.97;12.97;;;;;21.20;98131.00;;;;2043829;28;20769;-58
2024/01/18 00:18:59;;;;;;;19.00;12.93;;;;;21.20;98131.00;;;;2055710;28;20251;-57
2024/01/18 00:19:59;;;;;;;16.60;12.57;;;;;21.20;98136.00;;;;2052737;28;20212;-57
2024/01/18 00:20:59;;;;;;;20.17;12.87;;;;;21.10;98135.00;;;;2050778;28;20574;-57
2024/01/18 00:22:02;;;;;;;18.97;12.87;;;;;21.20;98135.00;;;;2048208;28;20633;-57
2024/01/18 00:23:02;;;;;;;16.75;12.88;;;;;21.10;98139.00;;;;2041826;28;20269;-57
2024/01/18 00:24:02;;;;;;;16.30;13.57;;;;;21.10;98143.00;;;;2047208;28;21016;-58
2024/01/18 00:25:03;;;;;;;18.37;11.70;;;;;21.10;98147.00;;;;2050476;28;20215;-58
2024/01/18 00:26:05;;;;;;;15.70;12.77;;;;;21.10;98135.00;;;;2053595;28;20223;-57
2024/01/18 00:27:06;;;;;;;16.45;13.07;;;;;21.10;98139.00;;;;2054120;28;20623;-58
2024/01/18 00:28:07;;;;;;;15.85;12.70;;;;;21.10;98140.00;;;;2040283;28;20235;-58
2024/01/18 00:29:07;;;;;;;14.90;11.80;;;;;21.10;98154.00;;;;2052594;28;21037;-59
2024/01/18 00:30:07;;;;;;;15.43;12.27;;;;;21.10;98138.00;;;;2051339;28;20630;-58
2024/01/18 00:31:08;;;;;;;16.63;11.80;;;;;21.10;98137.00;;;;2046925;28;20232;-57
2024/01/18 00:32:08;;;;;;;15.57;11.83;;;;;21.10;98141.00;;;;2051228;28;20843;-58
2024/01/18 00:33:08;;;;;;;15.33;11.43;;;;;21.00;98139.00;;;;2037942;28;20928;-58
2024/01/18 00:34:09;;;;;;;14.00;11.60;;;;;21.10;98146.00;;;;2048457;28;20677;-58
2024/01/18 00:35:09;;;;;;;15.20;11.40;;;;;21.00;98136.00;;;;2048257;28;20266;-58
2024/01/18 00:36:10;;;;;;;16.30;11.43;;;;;21.00;98143.00;;;;2051413;28;20223;-57
2024/01/18 00:37:10;;;;;;;16.80;12.33;;;;;21.10;98148.00;;;;2048599;28;20221;-58
2024/01/18 00:38:10;;;;;;;14.40;11.13;;;;;21.00;98142.00;;;;2034332;28;20278;-58
2024/01/18 00:39:15;;;;;;;14.17;11.77;;;;;21.00;98149.00;;;;2046297;28;20220;-58
2024/01/18 00:40:15;;;;;;;15.75;11.25;;;;;21.00;98152.00;;;;2048041;28;20713;-57
2024/01/18 00:41:16;;;;;;;15.27;11.40;;;;;21.00;98143.00;;;;2050300;28;20226;-58
2024/01/18 00:42:16;;;;;;;13.97;11.27;;;;;21.00;98154.00;;;;2048757;28;20246;-58
2024/01/18 00:43:17;;;;;;;14.33;10.63;;;;;21.00;98142.00;;;;2048300;28;20836;-58
2024/01/18 00:44:17;;;;;;;14.93;11.13;;;;;21.00;98152.00;;;;2048042;28;20251;-58
2024/01/18 00:45:17;;;;;;;13.97;10.20;;;;;21.00;98148.00;;;;2050352;28;20223;-57
2024/01/18 00:46:19;;;;;;;14.70;11.27;;;;;21.00;98145.00;;;;2048470;28;20228;-57
2024/01/18 00:47:19;;;;;;;15.43;10.85;;;;;21.00;98150.00;;;;2037224;28;20689;-57
2024/01/18 00:48:19;;;;;;;16.20;10.93;;;;;21.00;98146.00;;;;2049964;28;20236;-58
2024/01/18 00:49:20;;;;;;;14.67;10.27;;;;;21.00;98149.00;;;;2042520;28;20217;-57
2024/01/18 00:50:20;;;;;;;13.40;10.33;;;;;21.00;98148.00;;;;2049240;28;20218;-57
2024/01/18 00:51:20;;;;;;;15.00;10.90;;;;;21.00;98155.00;;;;2046418;28;20634;-57
2024/01/18 00:52:21;;;;;;;13.50;10.20;;;;;21.00;98195.00;;;;2037197;28;20588;-58
2024/01/18 00:53:21;;;;;;;13.20;10.00;;;;;21.00;98162.00;;;;2040907;28;20560;-57
2024/01/18 00:54:21;;;;;;;15.37;10.87;;;;;20.70;98169.00;;;;2047202;28;20320;-57
2024/01/18 00:55:22;;;;;;;12.87;10.07;;;;;21.00;98170.00;;;;2040414;28;20228;-58
2024/01/18 00:56:22;;;;;;;14.33;9.90;;;;;21.00;98177.00;;;;2048886;28;20215;-58
2024/01/18 00:57:22;;;;;;;13.80;9.37;;;;;20.90;98176.00;;;;2034156;28;20323;-58
2024/01/18 00:58:23;;;;;;;13.13;9.97;;;;;20.90;98177.00;;;;2055560;28;20214;-58
2024/01/18 00:59:24;;;;;;;15.00;10.10;;;;;21.00;98178.00;;;;2053489;28;20236;-59
2024/01/18 01:00:25;;;;;;;12.63;9.65;;;;;20.90;98183.00;;;;2050034;28;20619;-58
2024/01/18 01:01:25;;;;;;;11.17;9.30;;;;;20.90;98177.00;;;;2051643;28;20207;-58
2024/01/18 01:02:25;;;;;;;14.20;9.90;;;;;20.30;98175.00;;;;2041838;28;20672;-58
2024/01/18 01:03:26;;;;;;;13.80;10.40;;;;;21.00;98177.00;;;;2044588;28;20705;-57
2024/01/18 01:04:26;;;;;;;12.60;9.60;;;;;20.90;98002.00;;;;2043906;28;20242;-57
2024/01/18 01:05:26;;;;;;;12.67;9.50;;;;;20.90;98183.00;;;;2056504;28;20215;-58
2024/01/18 01:06:27;;;;;;;13.00;9.43;;;;;20.90;98191.00;;;;2050901;28;20302;-57
2024/01/18 01:07:27;;;;;;;13.37;9.60;;;;;20.90;98189.00;;;;2036154;28;20263;-57
2024/01/18 01:08:27;;;;;;;13.00;9.30;;;;;20.90;98194.00;;;;2051784;28;20270;-58
2024/01/18 01:09:28;;;;;;;14.80;9.40;;;;;20.90;98191.00;;;;2047058;28;20232;-58
2024/01/18 01:10:29;;;;;;;10.65;8.43;;;;;20.90;98198.00;;;;2056756;28;20246;-57
2024/01/18 01:11:29;;;;;;;13.90;9.83;;;;;20.90;98197.00;;;;2050077;28;20989;-58
2024/01/18 01:12:29;;;;;;;11.97;8.30;;;;;20.90;98195.00;;;;2044465;28;20722;-57
2024/01/18 01:13:30;;;;;;;13.80;9.27;;;;;20.90;98204.00;;;;2051151;28;20707;-58
2024/01/18 01:14:30;;;;;;;12.53;8.90;;;;;20.90;98200.00;;;;2045439;28;20216;-57
2024/01/18 01:15:30;;;;;;;11.77;8.90;;;;;20.90;98212.00;;;;2046468;28;20220;-58
2024/01/18 01:16:31;;;;;;;12.47;9.57;;;;;20.90;98207.00;;;;2052539;28;20226;-58
2024/01/18 01:17:31;;;;;;;13.10;9.40;;;;;20.90;98208.00;;;;2044126;28;20226;-57
2024/01/18 01:18:32;;;;;;;10.50;8.17;;;;;20.80;98207.00;;;;2052778;28;20715;-57
2024/01/18 01:19:32;;;;;;;10.47;8.97;;;;;20.80;98200.00;;;;2053829;28;20220;-58
2024/01/18 01:20:32;;;;;;;13.37;8.57;;;;;20.80;98196.00;;;;2052634;28;20764;-58
2024/01/18 01:21:33;;;;;;;12.50;8.57;;;;;20.80;98195.00;;;;2053644;28;20297;-57
2024/01/18 01:22:33;;;;;;;11.13;8.80;;;;;20.80;98194.00;;;;2044320;28;20568;-57
2024/01/18 01:23:38;;;;;;;11.93;8.83;;;;;20.80;98196.00;;;;2048080;28;20583;-57
2024/01/18 01:24:39;;;;;;;11.45;8.63;;;;;20.80;98194.00;;;;2051315;28;20220;-58
2024/01/18 01:25:39;;;;;;;13.37;8.20;;;;;20.80;98191.00;;;;2048193;28;20217;-57
2024/01/18 01:26:39;;;;;;;11.90;8.00;;;;;20.80;98202.00;;;;2045693;28;20223;-57
2024/01/18 01:27:39;;;;;;;10.77;8.20;;;;;20.80;98197.00;;;;2040425;28;20270;-57
2024/01/18 01:28:40;;;;;;;12.30;8.17;;;;;20.80;98205.00;;;;2052338;28;20234;-58
2024/01/18 01:29:40;;;;;;;11.60;9.00;;;;;20.80;98210.00;;;;2049011;28;20227;-57
2024/01/18 01:30:40;;;;;;;9.83;7.60;;;;;20.80;98209.00;;;;2046617;28;20695;-58
2024/01/18 01:31:41;;;;;;;9.33;7.40;;;;;20.80;98204.00;;;;2049803;28;20274;-58
2024/01/18 01:32:41;;;;;;;11.33;7.97;;;;;20.80;98206.00;;;;2039791;28;20344;-58
2024/01/18 01:33:42;;;;;;;10.53;7.87;;;;;20.80;98209.00;;;;2052274;28;20230;-58
2024/01/18 01:34:42;;;;;;;9.33;7.47;;;;;20.80;98204.00;;;;2052628;28;20258;-58
2024/01/18 01:35:42;;;;;;;10.60;8.27;;;;;20.70;98214.00;;;;2045646;28;20215;-58
2024/01/18 01:36:43;;;;;;;9.40;7.47;;;;;20.80;98215.00;;;;2053273;28;20282;-58
2024/01/18 01:37:43;;;;;;;10.80;7.83;;;;;20.80;98212.00;;;;2038949;28;20239;-58
2024/01/18 01:38:43;;;;;;;9.03;6.53;;;;;20.80;98204.00;;;;2050290;28;20237;-57
2024/01/18 01:39:44;;;;;;;11.40;7.60;;;;;20.80;98212.00;;;;2046192;28;20254;-57
2024/01/18 01:40:44;;;;;;;9.00;7.07;;;;;20.70;98209.00;;;;2043023;28;20220;-62
2024/01/18 01:41:44;;;;;;;11.23;7.47;;;;;20.70;98207.00;;;;2039524;28;20224;-59
2024/01/18 01:42:44;;;;;;;9.07;7.23;;;;;20.70;98200.00;;;;2038755;28;20322;-61
2024/01/18 01:44:01;;;;;;;11.07;8.23;;;;;20.70;98206.00;;;;2051917;28;20207;-58
2024/01/18 01:45:01;;;;;;;10.13;7.32;;;;;20.70;98201.00;;;;2049717;28;20286;-57
2024/01/18 01:46:01;;;;;;;11.07;7.80;;;;;20.70;98201.00;;;;2052148;28;20227;-58
2024/01/18 01:47:02;;;;;;;10.73;7.20;;;;;20.70;98202.00;;;;2047217;28;20211;-57
2024/01/18 01:48:03;;;;;;;9.50;7.40;;;;;20.70;98205.00;;;;2036193;28;20294;-57
2024/01/18 01:49:05;;;;;;;8.85;7.35;;;;;20.70;98217.00;;;;2049173;28;20398;-58
2024/01/18 01:50:05;;;;;;;9.27;7.25;;;;;20.70;98217.00;;;;2052598;28;20704;-59
2024/01/18 01:51:06;;;;;;;10.20;7.17;;;;;20.70;98209.00;;;;2048898;28;20240;-58
2024/01/18 01:52:06;;;;;;;9.80;7.00;;;;;20.70;98220.00;;;;2053073;28;20223;-57
2024/01/18 01:53:07;;;;;;;10.23;7.07;;;;;20.70;98248.00;;;;2041734;28;20274;-57
2024/01/18 01:54:08;;;;;;;9.77;7.13;;;;;20.70;98221.00;;;;2051359;28;20225;-57
2024/01/18 01:55:08;;;;;;;11.67;6.90;;;;;20.70;98215.00;;;;2052613;28;20223;-57
2024/01/18 01:56:08;;;;;;;9.00;6.90;;;;;20.70;98225.00;;;;2047930;28;20220;-57
2024/01/18 01:57:09;;;;;;;7.80;6.47;;;;;20.70;98214.00;;;;2037311;29;20652;-57
2024/01/18 01:58:10;;;;;;;9.10;6.80;;;;;20.70;98212.00;;;;2039563;28;20215;-58
2024/01/18 01:59:10;;;;;;;9.80;6.95;;;;;20.70;98215.00;;;;2050222;28;20219;-57
2024/01/18 02:00:13;;;;;;;8.53;6.80;;;;;20.70;98218.00;;;;2052745;28;20242;-57
2024/01/18 02:01:13;;;;;;;11.18;7.75;;;;;20.70;98224.00;;;;2057480;28;20226;-57
2024/01/18 02:02:14;;;;;;;9.47;7.00;;;;;20.70;98220.00;;;;2059177;28;20226;-57
2024/01/18 02:03:14;;;;;;;7.63;6.27;;;;;20.60;98222.00;;;;2045307;28;20458;-58
2024/01/18 02:04:14;;;;;;;8.20;6.60;;;;;20.70;98242.00;;;;2046374;28;20790;-60
2024/01/18 02:05:15;;;;;;;10.37;7.00;;;;;20.70;98245.00;;;;2048850;28;20870;-58
2024/01/18 02:06:15;;;;;;;7.80;6.73;;;;;20.60;98233.00;;;;2049326;28;20250;-59
2024/01/18 02:07:15;;;;;;;11.07;6.80;;;;;20.60;98246.00;;;;2045194;28;20220;-61
2024/01/18 02:08:16;;;;;;;9.23;6.63;;;;;20.60;98233.00;;;;2027855;29;20579;-59
2024/01/18 02:09:16;;;;;;;8.80;6.53;;;;;20.60;98235.00;;;;2043865;28;20251;-57
2024/01/18 02:10:16;;;;;;;8.33;6.83;;;;;20.60;98228.00;;;;2046810;28;20204;-58
2024/01/18 02:11:17;;;;;;;10.03;6.03;;;;;20.60;98243.00;;;;2050593;28;20238;-58
2024/01/18 02:12:17;;;;;;;9.17;7.20;;;;;20.60;98242.00;;;;2041490;28;20231;-58
2024/01/18 02:13:17;;;;;;;7.77;6.00;;;;;20.60;98242.00;;;;2043942;28;20212;-58
2024/01/18 02:14:18;;;;;;;8.57;6.23;;;;;20.60;98240.00;;;;2046224;28;20656;-57
2024/01/18 02:15:18;;;;;;;8.33;6.67;;;;;20.60;98245.00;;;;2046271;28;20555;-58
2024/01/18 02:16:19;;;;;;;8.63;6.50;;;;;20.60;98247.00;;;;2041589;28;20220;-57
2024/01/18 02:17:19;;;;;;;7.80;6.00;;;;;20.60;98243.00;;;;2034647;28;20247;-58
2024/01/18 02:18:19;;;;;;;8.00;6.00;;;;;20.60;98242.00;;;;2052238;28;20266;-57
2024/01/18 02:19:19;;;;;;;8.53;6.67;;;;;20.50;98252.00;;;;2045019;28;20212;-57
2024/01/18 02:20:20;;;;;;;9.13;6.33;;;;;20.60;98251.00;;;;2044043;28;20303;-57
2024/01/18 02:21:20;;;;;;;8.63;7.07;;;;;20.50;98248.00;;;;2043907;28;20230;-57
2024/01/18 02:22:22;;;;;;;7.40;6.00;;;;;20.60;98256.00;;;;2035318;28;20333;-57
2024/01/18 02:23:22;;;;;;;8.35;6.80;;;;;20.60;98259.00;;;;2048958;28;20223;-58
2024/01/18 02:24:33;;;;;;;9.63;6.53;;;;;20.60;98256.00;;;;2038428;28;20261;-58
2024/01/18 02:25:33;;;;;;;7.75;6.03;;;;;20.50;98257.00;;;;2046453;28;20234;-57
2024/01/18 02:26:33;;;;;;;7.50;5.80;;;;;20.50;98257.00;;;;2052459;28;20318;-57
2024/01/18 02:27:34;;;;;;;7.37;6.10;;;;;20.50;98261.00;;;;2040122;28;20242;-58
2024/01/18 02:28:34;;;;;;;7.93;5.63;;;;;20.50;98257.00;;;;2042976;28;20268;-57
2024/01/18 02:29:34;;;;;;;8.73;6.27;;;;;20.50;98255.00;;;;2044469;28;20219;-57
2024/01/18 02:30:35;;;;;;;6.33;5.40;;;;;20.50;98255.00;;;;2052132;28;20220;-57
2024/01/18 02:31:35;;;;;;;7.63;6.20;;;;;20.50;98254.00;;;;2048988;28;20250;-57
2024/01/18 02:32:35;;;;;;;6.30;5.30;;;;;20.50;98255.00;;;;2038910;28;20221;-57
2024/01/18 02:33:36;;;;;;;7.87;5.97;;;;;20.50;98257.00;;;;2057833;28;20217;-58
2024/01/18 02:34:40;;;;;;;9.80;6.53;;;;;19.80;98256.00;;;;2056485;28;20213;-57
2024/01/18 02:35:40;;;;;;;7.57;5.53;;;;;20.50;98254.00;;;;2051643;28;20219;-58
2024/01/18 02:36:40;;;;;;;10.20;5.80;;;;;20.50;98302.00;;;;2044870;28;20317;-57
2024/01/18 02:37:40;;;;;;;8.00;5.67;;;;;20.50;98250.00;;;;2036400;28;20735;-57
2024/01/18 02:38:41;;;;;;;7.03;5.57;;;;;20.40;98243.00;;;;2044525;28;20697;-57
2024/01/18 02:39:42;;;;;;;7.67;5.83;;;;;20.50;98244.00;;;;2046424;28;20872;-58
2024/01/18 02:40:42;;;;;;;9.47;5.90;;;;;20.40;98243.00;;;;2046988;28;21016;-57
2024/01/18 02:41:42;;;;;;;8.03;5.70;;;;;20.00;98247.00;;;;2048533;28;20216;-57
2024/01/18 02:42:43;;;;;;;7.20;5.13;;;;;20.40;98245.00;;;;2034900;28;20228;-58
2024/01/18 02:43:43;;;;;;;6.33;5.57;;;;;20.50;98243.00;;;;2035151;28;20231;-57
2024/01/18 02:44:44;;;;;;;6.67;5.60;;;;;20.40;98242.00;;;;2050990;28;20215;-58
2024/01/18 02:45:44;;;;;;;7.30;5.45;;;;;20.40;98245.00;;;;2052026;28;20243;-57
2024/01/18 02:46:46;;;;;;;9.13;5.83;;;;;20.50;98246.00;;;;2052296;28;20228;-58
2024/01/18 02:47:47;;;;;;;8.27;5.53;;;;;20.50;98241.00;;;;2042252;28;20311;-57
2024/01/18 02:48:47;;;;;;;7.63;5.40;;;;;20.50;98240.00;;;;2046106;28;20216;-57
2024/01/18 02:49:47;;;;;;;8.07;5.60;;;;;20.50;98236.00;;;;2046265;28;20232;-57
2024/01/18 02:50:48;;;;;;;7.40;5.77;;;;;20.40;98237.00;;;;2044445;28;20216;-58
2024/01/18 02:51:48;;;;;;;6.47;5.17;;;;;20.50;98243.00;;;;2048109;28;20216;-57
2024/01/18 02:52:49;;;;;;;7.87;5.80;;;;;20.50;98245.00;;;;2038734;28;20243;-57
2024/01/18 02:53:49;;;;;;;7.23;5.70;;;;;20.40;98248.00;;;;2054294;28;20242;-57
2024/01/18 02:54:49;;;;;;;7.20;5.53;;;;;20.40;98251.00;;;;2044895;28;20209;-58
2024/01/18 02:55:50;;;;;;;6.50;5.43;;;;;20.40;98247.00;;;;2044249;28;20307;-57
2024/01/18 02:56:50;;;;;;;6.30;5.00;;;;;20.40;98253.00;;;;2043225;28;20208;-58
2024/01/18 02:57:53;;;;;;;6.33;4.80;;;;;20.40;98246.00;;;;2034470;28;20258;-58
2024/01/18 02:58:54;;;;;;;7.50;6.10;;;;;20.40;98243.00;;;;2051198;28;20211;-57
2024/01/18 02:59:54;;;;;;;6.47;5.03;;;;;20.40;98240.00;;;;2052550;28;20199;-57
2024/01/18 03:00:54;;;;;;;7.80;5.40;;;;;20.40;98242.00;;;;2052312;28;20219;-58
2024/01/18 03:01:55;;;;;;;6.60;5.13;;;;;20.40;98249.00;;;;2048963;28;20200;-57
2024/01/18 03:02:55;;;;;;;8.30;5.40;;;;;20.40;98235.00;;;;2038569;28;20216;-57
2024/01/18 03:03:55;;;;;;;8.10;5.80;;;;;20.40;98243.00;;;;2048338;28;20231;-58
2024/01/18 03:04:55;;;;;;;7.57;5.10;;;;;20.40;98254.00;;;;2051930;28;20215;-58
2024/01/18 03:05:56;;;;;;;6.83;5.10;;;;;20.40;98248.00;;;;2052899;28;20227;-58
2024/01/18 03:06:56;;;;;;;6.63;5.30;;;;;20.40;98247.00;;;;2050370;28;20234;-57
2024/01/18 03:07:56;;;;;;;6.27;5.03;;;;;20.40;98246.00;;;;2040111;28;20334;-57
2024/01/18 03:08:57;;;;;;;6.70;5.47;;;;;20.40;98250.00;;;;2051664;28;20227;-58
2024/01/18 03:09:57;;;;;;;6.93;5.50;;;;;20.40;98249.00;;;;2045294;28;20894;-58
2024/01/18 03:10:57;;;;;;;5.90;4.80;;;;;20.40;98245.00;;;;2044944;28;20222;-58
2024/01/18 03:11:58;;;;;;;7.97;5.43;;;;;20.40;98246.00;;;;2045119;28;20239;-58
2024/01/18 03:12:58;;;;;;;6.90;5.40;;;;;20.40;98249.00;;;;2033715;28;20231;-58
2024/01/18 03:13:58;;;;;;;6.93;5.17;;;;;20.40;98246.00;;;;2047848;28;20223;-58
2024/01/18 03:14:59;;;;;;;6.40;5.30;;;;;20.40;98254.00;;;;2052580;28;20217;-58
2024/01/18 03:15:59;;;;;;;6.40;4.70;;;;;20.30;98248.00;;;;2051483;28;20207;-58
2024/01/18 03:16:59;;;;;;;7.90;5.30;;;;;20.40;98257.00;;;;2048593;28;20239;-58
2024/01/18 03:18:00;;;;;;;6.40;5.10;;;;;20.40;98260.00;;;;2035482;28;20216;-58
2024/01/18 03:19:00;;;;;;;6.43;4.87;;;;;20.30;98263.00;;;;2051212;28;20227;-57
2024/01/18 03:20:00;;;;;;;6.33;5.53;;;;;20.30;98263.00;;;;2052992;28;20222;-57
2024/01/18 03:21:07;;;;;;;7.57;5.90;;;;;20.30;98256.00;;;;2051884;28;20223;-57
2024/01/18 03:22:07;;;;;;;6.78;5.10;;;;;20.30;98258.00;;;;2052941;28;20215;-57
2024/01/18 03:23:07;;;;;;;6.97;5.40;;;;;20.30;98250.00;;;;2040088;28;22124;-57
2024/01/18 03:24:08;;;;;;;6.37;5.23;;;;;20.30;98261.00;;;;2054462;28;20227;-57
2024/01/18 03:25:08;;;;;;;6.47;4.83;;;;;20.30;98262.00;;;;2052383;28;20295;-57
2024/01/18 03:26:09;;;;;;;6.97;5.00;;;;;20.30;98250.00;;;;2046917;28;20232;-58
2024/01/18 03:27:09;;;;;;;7.80;5.10;;;;;20.30;98267.00;;;;2044981;28;20279;-58
2024/01/18 03:28:09;;;;;;;5.60;4.90;;;;;20.30;98261.00;;;;2046028;28;20274;-58
2024/01/18 03:29:10;;;;;;;5.43;4.40;;;;;20.30;98262.00;;;;2055114;28;20596;-57
2024/01/18 03:30:10;;;;;;;6.37;5.17;;;;;20.30;98264.00;;;;2051547;28;20245;-58
2024/01/18 03:31:12;;;;;;;6.43;5.00;;;;;20.30;98264.00;;;;2051608;28;20227;-57
2024/01/18 03:32:12;;;;;;;7.13;5.07;;;;;20.30;98264.00;;;;2048585;28;20230;-57
2024/01/18 03:33:12;;;;;;;6.67;4.87;;;;;20.30;98269.00;;;;2025311;28;20607;-58
2024/01/18 03:34:13;;;;;;;5.87;4.77;;;;;20.30;98265.00;;;;2057099;28;20752;-58
2024/01/18 03:35:13;;;;;;;6.00;4.50;;;;;20.30;98262.00;;;;2051634;28;20223;-58
2024/01/18 03:36:13;;;;;;;6.20;4.90;;;;;20.30;98265.00;;;;2052598;28;20219;-57
2024/01/18 03:37:14;;;;;;;7.57;5.50;;;;;20.30;98262.00;;;;2049119;28;20235;-57
2024/01/18 03:38:14;;;;;;;8.07;5.23;;;;;20.20;98265.00;;;;2043281;28;20215;-57
2024/01/18 03:39:14;;;;;;;7.03;5.00;;;;;20.30;98262.00;;;;2052639;28;20775;-57
2024/01/18 03:40:15;;;;;;;5.57;4.70;;;;;20.30;98252.00;;;;2057357;28;20264;-58
2024/01/18 03:41:15;;;;;;;6.03;4.47;;;;;20.30;98267.00;;;;2052956;28;20224;-58
2024/01/18 03:42:16;;;;;;;6.77;5.10;;;;;20.20;98273.00;;;;2049318;28;20220;-58
2024/01/18 03:43:16;;;;;;;6.50;4.47;;;;;20.20;98265.00;;;;2033714;28;20232;-57
2024/01/18 03:44:16;;;;;;;6.47;5.03;;;;;20.20;98271.00;;;;2046893;28;20267;-58
2024/01/18 03:45:17;;;;;;;6.93;5.47;;;;;20.20;98266.00;;;;2050037;28;20219;-61
2024/01/18 03:46:17;;;;;;;7.20;5.70;;;;;20.20;98259.00;;;;2050373;28;20211;-58
2024/01/18 03:47:17;;;;;;;6.60;4.43;;;;;20.20;98260.00;;;;2040442;28;20212;-57
2024/01/18 03:48:18;;;;;;;6.53;4.73;;;;;20.20;98267.00;;;;2045000;28;20212;-58
2024/01/18 03:49:19;;;;;;;5.67;4.60;;;;;20.20;98256.00;;;;2051454;28;20211;-57
2024/01/18 03:50:20;;;;;;;5.60;4.22;;;;;20.20;98256.00;;;;2046825;28;20278;-58
2024/01/18 03:51:20;;;;;;;8.07;5.00;;;;;20.20;98263.00;;;;2051784;28;20755;-58
2024/01/18 03:52:20;;;;;;;7.30;4.67;;;;;20.20;98255.00;;;;2040623;28;20223;-58
2024/01/18 03:53:21;;;;;;;6.10;4.50;;;;;20.20;98257.00;;;;2045566;28;20208;-58
2024/01/18 03:54:22;;;;;;;5.00;4.50;;;;;20.20;98259.00;;;;2048837;28;20212;-59
2024/01/18 03:55:22;;;;;;;7.60;4.90;;;;;20.20;98253.00;;;;2055894;28;20222;-58
2024/01/18 03:56:23;;;;;;;6.30;4.57;;;;;20.20;98248.00;;;;2052561;28;20262;-58
2024/01/18 03:57:23;;;;;;;7.47;5.40;;;;;20.20;98250.00;;;;2038446;28;20208;-58
2024/01/18 03:58:23;;;;;;;5.87;4.70;;;;;20.10;98250.00;;;;2046968;28;20216;-58
2024/01/18 03:59:24;;;;;;;7.57;5.43;;;;;20.20;98249.00;;;;2059081;28;20249;-58
2024/01/18 04:00:24;;;;;;;7.00;4.47;;;;;20.10;98246.00;;;;2062037;28;20294;-58
2024/01/18 04:01:24;;;;;;;6.73;4.67;;;;;20.10;98246.00;;;;2053345;28;20231;-58
2024/01/18 04:02:25;;;;;;;6.20;4.77;;;;;20.20;98253.00;;;;2039275;28;20215;-59
2024/01/18 04:03:25;;;;;;;7.20;4.90;;;;;20.20;98243.00;;;;2045985;28;20215;-57
2024/01/18 04:04:26;;;;;;;6.40;4.60;;;;;20.20;98253.00;;;;2047330;28;20251;-58
2024/01/18 04:05:26;;;;;;;6.25;4.97;;;;;20.20;98247.00;;;;2056387;28;20222;-58
2024/01/18 04:06:27;;;;;;;7.63;5.07;;;;;20.10;98258.00;;;;2060230;28;20700;-57
2024/01/18 04:07:27;;;;;;;7.27;5.03;;;;;19.60;98258.00;;;;2039506;28;20704;-57
2024/01/18 04:08:27;;;;;;;5.40;4.63;;;;;20.20;98262.00;;;;2059018;28;20218;-57
2024/01/18 04:09:28;;;;;;;5.60;4.47;;;;;20.20;98258.00;;;;2060227;28;20227;-58
2024/01/18 04:10:28;;;;;;;7.20;5.63;;;;;20.20;98259.00;;;;2053349;28;20235;-58
2024/01/18 04:11:29;;;;;;;6.20;4.77;;;;;20.20;98242.00;;;;2054089;28;20301;-58
2024/01/18 04:12:29;;;;;;;6.10;4.60;;;;;20.20;98270.00;;;;2043176;28;20223;-57
2024/01/18 04:13:30;;;;;;;7.07;5.50;;;;;20.10;98271.00;;;;2051754;28;20467;-58
2024/01/18 04:14:30;;;;;;;5.50;4.30;;;;;20.10;98262.00;;;;2059397;28;20226;-58
2024/01/18 04:15:30;;;;;;;6.23;4.63;;;;;20.10;98268.00;;;;2053214;28;20692;-58
2024/01/18 04:16:31;;;;;;;5.50;3.93;;;;;20.10;98266.00;;;;2046600;28;20764;-58
2024/01/18 04:17:31;;;;;;;6.70;5.10;;;;;20.10;98273.00;;;;2040122;28;20195;-58
2024/01/18 04:18:32;;;;;;;6.77;5.07;;;;;20.10;98274.00;;;;2054091;28;20243;-58
2024/01/18 04:19:32;;;;;;;7.60;4.93;;;;;20.10;98280.00;;;;2058791;28;20215;-57
2024/01/18 04:20:32;;;;;;;6.30;4.80;;;;;20.10;98282.00;;;;2053569;28;20222;-58
2024/01/18 04:21:33;;;;;;;6.17;4.23;;;;;20.10;98283.00;;;;2046661;28;20220;-57
2024/01/18 04:22:33;;;;;;;6.10;4.40;;;;;20.10;98287.00;;;;2041679;28;20212;-58
2024/01/18 04:23:33;;;;;;;5.67;4.63;;;;;20.10;98274.00;;;;2052634;28;20278;-58
2024/01/18 04:24:34;;;;;;;5.60;4.43;;;;;20.10;98285.00;;;;2052519;28;20216;-59
2024/01/18 04:25:34;;;;;;;4.53;4.00;;;;;20.10;98286.00;;;;2052534;28;20311;-58
2024/01/18 04:26:34;;;;;;;5.63;4.53;;;;;20.10;98287.00;;;;2046897;28;20232;-58
2024/01/18 04:27:35;;;;;;;6.50;4.70;;;;;20.10;98293.00;;;;2044140;28;20274;-58
2024/01/18 04:28:35;;;;;;;6.60;5.27;;;;;20.10;98298.00;;;;2046503;28;20608;-58
2024/01/18 04:29:35;;;;;;;7.30;4.60;;;;;20.10;98317.00;;;;2054864;28;20215;-58
2024/01/18 04:30:36;;;;;;;5.80;4.70;;;;;20.10;98297.00;;;;2051516;28;20222;-58
2024/01/18 04:31:36;;;;;;;4.80;4.23;;;;;20.10;98301.00;;;;2048557;28;20211;-58
2024/01/18 04:32:36;;;;;;;5.50;4.30;;;;;20.10;98299.00;;;;2037150;28;20311;-58
2024/01/18 04:33:37;;;;;;;8.23;5.00;;;;;20.10;98302.00;;;;2052373;28;20231;-58
2024/01/18 04:34:37;;;;;;;6.80;4.80;;;;;20.10;98302.00;;;;2053182;28;20727;-58
2024/01/18 04:35:38;;;;;;;5.13;4.07;;;;;20.10;98296.00;;;;2045058;28;20263;-58
2024/01/18 04:36:38;;;;;;;6.03;4.80;;;;;20.10;98306.00;;;;2055151;28;20234;-58
2024/01/18 04:37:39;;;;;;;6.80;4.90;;;;;20.10;98291.00;;;;2036020;28;20224;-58
2024/01/18 04:38:39;;;;;;;5.93;4.23;;;;;20.10;98307.00;;;;2048269;28;20220;-58
2024/01/18 04:39:39;;;;;;;5.60;4.30;;;;;20.10;98299.00;;;;2060056;28;20245;-57
2024/01/18 04:40:40;;;;;;;9.17;5.50;;;;;20.00;98308.00;;;;2046113;28;20227;-57
2024/01/18 04:41:40;;;;;;;5.77;4.47;;;;;20.00;98316.00;;;;2049249;28;20212;-57
2024/01/18 04:42:40;;;;;;;6.00;4.90;;;;;20.00;98324.00;;;;2040546;28;20216;-57
2024/01/18 04:43:41;;;;;;;5.97;4.70;;;;;20.10;98317.00;;;;2040822;28;20228;-57
2024/01/18 04:44:41;;;;;;;5.63;5.00;;;;;20.00;98316.00;;;;2058813;28;20223;-58
2024/01/18 04:45:42;;;;;;;6.43;4.53;;;;;20.00;98315.00;;;;2049624;28;20232;-57
2024/01/18 04:46:42;;;;;;;6.50;4.70;;;;;20.00;98322.00;;;;2052476;28;20691;-58
2024/01/18 04:47:42;;;;;;;6.20;4.70;;;;;20.00;98321.00;;;;2036572;28;20715;-58
2024/01/18 04:48:44;;;;;;;6.30;4.67;;;;;20.00;98309.00;;;;2045407;28;20732;-58
2024/01/18 04:49:45;;;;;;;5.30;4.78;;;;;20.00;98316.00;;;;2045583;28;20212;-58
2024/01/18 04:50:45;;;;;;;5.93;4.63;;;;;20.00;98319.00;;;;2043571;28;20601;-58
2024/01/18 04:51:46;;;;;;;6.63;4.07;;;;;20.00;98335.00;;;;2045513;28;20460;-58
2024/01/18 04:52:48;;;;;;;5.93;4.40;;;;;20.00;98316.00;;;;2033759;28;21376;-58
2024/01/18 04:53:49;;;;;;;6.90;5.15;;;;;20.00;98321.00;;;;2044698;28;20299;-57
2024/01/18 04:54:49;;;;;;;5.40;4.40;;;;;19.90;98322.00;;;;2048465;28;20271;-57
2024/01/18 04:55:49;;;;;;;7.00;5.37;;;;;20.00;98316.00;;;;2045952;28;20249;-59
2024/01/18 04:56:50;;;;;;;6.80;5.03;;;;;20.00;98319.00;;;;2051452;28;20696;-58
2024/01/18 04:57:50;;;;;;;6.00;4.53;;;;;20.00;98330.00;;;;2041164;28;20212;-57
2024/01/18 04:58:50;;;;;;;6.23;4.83;;;;;20.00;98326.00;;;;2052575;28;20303;-57
2024/01/18 04:59:51;;;;;;;5.43;4.67;;;;;20.00;98342.00;;;;2035420;29;20725;-58
2024/01/18 05:00:51;;;;;;;7.23;5.83;;;;;20.00;98343.00;;;;2045308;28;20689;-59
2024/01/18 05:01:52;;;;;;;6.10;4.83;;;;;20.00;98336.00;;;;2045186;28;20220;-58